Česky Dansk Deutsch English Español Suomi Français Magyar Italiano Nederlands norsk Polski Português svenska Türkçe

 

Het Weer

Erzurum (Turkije)

12:20, 25 juli 2016 (GMT)

NWNNE
WE
SWSSE
Home            
Erzurum Mus Tur-Afb Erzincan Kars Trabzon Elazig Batman Van Diyarbakir Yerevan Kamishli Malatya / Erhac Khoy Muhrani Sivas Tbilisi Urfa Tokat Adler Samsun / Carsamba Orumieh Mosul Gyanca Airport

Om een weerknop op uw website of weblog te plaatsen, copieer onderstaande code en plak die in uw pagina. In het eerste vakje staat HTML-code, in het tweede vakje UBB-code.


Add to Google

Details

Wind speed:2 bf, 4 kn, 2.1 m/s, 4.6 miles/h, 7.4 km/h
Wind direction:Variable
Generella sikten:Över 10000 m, 10 km, 32800 ft, 6.2 miles
Clouds:CAVOC
Temperaturen:26°C, 79°F
Gefühlte Temperatur:26°C, 78°F
Daggpunkt:3°C, 37°F
Lufttrycket:1015 hPa, 761.3 mmHg, 29.97 inHg, 1.002 atm
Relativa fuktigheten:22.5 %
METAR:LTCE 251220Z VRB04KT CAVOK 26/03 Q1015 NOSIG

Snelkoppelingen

Actuele weersinformatie van de hele wereld. Voeg locaties toe met het plus (+) symbool. Deze snelkoppelingen kunnen worden toegevoegd aan Google.

Lid van de Technetium groep

website free tracking
StatCounter NetStat W3C Validator

28-09-2022 08:25:59
astro.technetium.be money.technetium.be phote.technetium.be tafeltennistafel.technetium.be www.ligfiets.net